Time;durP1;ratioP1;P1;durP2;ratioP2;P2;SDS_P1;SDS_P2;PMS_P1;PMS_P2;Temp;Humidity;BMP_temperature;BMP_pressure;BME280_temperature;BME280_humidity;BME280_pressure;Samples;Min_cycle;Max_cycle;Signal;HPM_P1;HPM_P2
2023/07/12 00:01:19;;;;;;;10.63;8.00;;;;;;;24.48;49.64;97263.16;10517872;28;20367;-75
2023/07/12 00:06:42;;;;;;;12.95;8.25;;;;;;;24.52;49.72;97253.91;10531970;28;20079;-74
2023/07/12 00:12:03;;;;;;;12.85;8.43;;;;;;;24.54;49.68;97246.09;10517167;28;20059;-75
2023/07/12 00:17:25;;;;;;;11.35;7.72;;;;;;;24.50;49.95;97222.50;10517399;28;20520;-74
2023/07/12 00:22:46;;;;;;;12.55;7.32;;;;;;;24.50;49.96;97231.78;10530647;28;20386;-75
2023/07/12 00:28:24;;;;;;;11.05;7.80;;;;;;;24.45;50.12;97224.66;10530625;28;20047;-75
2023/07/12 00:33:45;;;;;;;11.00;7.75;;;;;;;24.38;50.58;97217.47;10502503;28;20070;-75
2023/07/12 00:39:05;;;;;;;11.80;7.85;;;;;;;24.35;50.62;97238.84;10515805;28;20040;-75
2023/07/12 00:44:33;;;;;;;12.83;7.83;;;;;;;24.36;51.09;97242.41;10502738;28;20044;-75
2023/07/12 00:49:53;;;;;;;11.45;7.95;;;;;;;24.39;50.63;97238.88;10528437;28;20258;-75
2023/07/12 00:55:52;;;;;;;10.40;6.93;;;;;;;24.42;51.06;97239.63;10529348;28;20068;-75
2023/07/12 01:01:13;;;;;;;13.75;7.55;;;;;;;24.41;51.02;97223.91;10529074;28;20094;-75
2023/07/12 01:06:34;;;;;;;9.82;7.25;;;;;;;24.41;51.18;97221.03;10514822;28;20063;-75
2023/07/12 01:11:56;;;;;;;9.88;7.80;;;;;;;24.40;51.63;97211.06;10544195;28;20557;-74
2023/07/12 01:17:19;;;;;;;9.90;7.53;;;;;;;24.36;52.45;97199.66;10515110;28;20051;-74
2023/07/12 01:22:41;;;;;;;9.20;6.93;;;;;;;24.30;53.04;97291.53;10528646;28;20054;-75
2023/07/12 01:28:01;;;;;;;11.85;7.50;;;;;;;24.42;53.66;97302.38;10514481;28;20044;-75
2023/07/12 01:33:22;;;;;;;19.67;7.25;;;;;;;24.42;54.50;97311.63;10499987;28;20435;-74
2023/07/12 01:38:44;;;;;;;16.30;6.95;;;;;;;23.67;58.68;97293.94;10514260;28;20075;-76
2023/07/12 01:44:36;;;;;;;13.50;6.93;;;;;;;22.54;64.26;97313.97;10493997;28;20478;-75
2023/07/12 01:49:57;;;;;;;13.15;6.95;;;;;;;22.00;67.23;97301.09;10527807;28;20071;-76
2023/07/12 01:55:17;;;;;;;10.93;7.43;;;;;;;21.68;69.30;97334.63;10542804;28;20516;-76
2023/07/12 02:00:39;;;;;;;10.60;6.90;;;;;;;21.45;70.44;97338.47;10499608;28;20068;-76
2023/07/12 02:06:00;;;;;;;11.15;6.82;;;;;;;21.27;71.58;97359.44;10542563;28;20103;-76
2023/07/12 02:11:21;;;;;;;10.45;5.80;;;;;;;21.09;72.74;97342.75;10527224;28;20645;-75
2023/07/12 02:16:43;;;;;;;10.18;5.00;;;;;;;20.98;73.78;97323.38;10526430;28;20139;-75
2023/07/12 02:22:04;;;;;;;7.68;4.10;;;;;;;20.89;74.44;97327.44;10526791;28;20067;-75
2023/07/12 02:27:25;;;;;;;5.32;3.08;;;;;;;20.73;75.19;97313.63;10526179;28;20469;-76
2023/07/12 02:32:46;;;;;;;5.75;2.70;;;;;;;20.51;76.01;97306.09;10498081;28;20115;-75
2023/07/12 02:38:06;;;;;;;5.65;2.20;;;;;;;20.36;76.39;97334.75;10511656;28;20063;-75
2023/07/12 02:43:27;;;;;;;5.63;1.92;;;;;;;20.27;76.68;97337.44;10525598;28;20063;-76
2023/07/12 02:48:48;;;;;;;3.92;2.05;;;;;;;20.26;76.12;97347.31;10511635;28;20040;-76
2023/07/12 02:54:08;;;;;;;5.25;1.70;;;;;;;20.27;76.24;97340.25;10525294;28;20039;-76
2023/07/12 02:59:29;;;;;;;4.65;1.30;;;;;;;20.33;75.98;97341.78;10525290;28;20116;-75
2023/07/12 03:04:50;;;;;;;3.25;1.27;;;;;;;20.36;75.94;97332.66;10524226;28;20082;-75
2023/07/12 03:10:11;;;;;;;4.28;1.25;;;;;;;20.39;74.74;97336.28;10496336;28;20508;-75
2023/07/12 03:15:36;;;;;;;4.60;1.33;;;;;;;20.27;75.88;97333.88;10524314;28;20091;-75
2023/07/12 03:20:59;;;;;;;4.35;1.40;;;;;;;20.04;76.11;97320.56;10510446;28;20178;-75
2023/07/12 03:26:20;;;;;;;2.90;1.43;;;;;;;19.89;77.77;97316.69;10510350;28;20125;-75
2023/07/12 03:31:40;;;;;;;3.63;1.48;;;;;;;19.78;78.32;97301.53;10539230;28;20064;-75
2023/07/12 03:37:02;;;;;;;5.13;1.55;;;;;;;19.81;79.02;97285.34;10510280;28;20044;-76
2023/07/12 03:42:22;;;;;;;4.07;1.17;;;;;;;19.87;79.21;97296.78;10509845;28;20044;-75
2023/07/12 03:47:43;;;;;;;3.45;1.25;;;;;;;19.89;78.87;97328.03;10524171;28;20075;-75
2023/07/12 03:53:03;;;;;;;3.22;1.20;;;;;;;19.68;80.65;97312.63;10523554;28;20056;-75
2023/07/12 03:58:26;;;;;;;4.20;1.75;;;;;;;19.56;81.97;97284.00;10523635;28;20074;-76
2023/07/12 04:03:46;;;;;;;2.75;1.55;;;;;;;19.62;82.18;97264.34;10509325;28;20154;-75
2023/07/12 04:09:08;;;;;;;2.88;1.27;;;;;;;19.72;81.78;97251.16;10509049;28;20186;-75
2023/07/12 04:14:29;;;;;;;3.33;1.10;;;;;;;19.88;81.39;97245.16;10495492;28;20072;-75
2023/07/12 04:19:49;;;;;;;3.67;1.23;;;;;;;19.95;80.81;97234.69;10523012;28;20494;-75
2023/07/12 04:25:10;;;;;;;2.47;0.80;;;;;;;19.99;80.17;97203.63;10529694;28;20124;-74
2023/07/12 04:30:31;;;;;;;1.60;1.02;;;;;;;19.90;79.43;97179.34;10530352;28;20516;-77
2023/07/12 04:35:51;;;;;;;3.80;1.40;;;;;;;19.61;81.74;97155.34;10530321;28;20115;-76
2023/07/12 04:41:12;;;;;;;2.85;1.38;;;;;;;19.38;84.49;97125.78;10529935;28;20064;-76
2023/07/12 04:46:33;;;;;;;4.40;1.80;;;;;;;19.14;87.82;97114.63;10529882;28;20132;-76
2023/07/12 04:51:54;;;;;;;4.55;1.63;;;;;;;19.08;88.32;97208.50;10502047;28;20120;-76
2023/07/12 04:57:15;;;;;;;2.20;1.08;;;;;;;19.41;87.95;97198.03;10529259;28;20123;-74
2023/07/12 05:02:35;;;;;;;1.63;0.80;;;;;;;19.82;86.89;97204.66;10544475;28;20044;-75
2023/07/12 05:07:56;;;;;;;3.40;0.68;;;;;;;20.24;86.06;97216.19;10544079;28;20047;-75
2023/07/12 05:13:17;;;;;;;1.70;0.68;;;;;;;20.73;84.28;97234.22;10528634;28;20051;-76
2023/07/12 05:18:37;;;;;;;1.13;0.50;;;;;;;21.15;80.19;97245.66;10528303;28;20082;-75
2023/07/12 05:23:58;;;;;;;1.23;0.52;;;;;;;21.51;78.96;97251.28;10514189;28;20116;-74
2023/07/12 05:29:19;;;;;;;1.33;0.50;;;;;;;22.03;77.50;97241.44;10514205;28;20072;-75
2023/07/12 05:34:41;;;;;;;1.88;0.63;;;;;;;22.56;75.31;97272.03;10513063;28;20128;-75
2023/07/12 05:40:03;;;;;;;5.10;0.60;;;;;;;23.06;73.83;97288.31;10527694;28;20542;-75
2023/07/12 05:45:24;;;;;;;4.35;0.90;;;;;;;23.56;72.73;97298.09;10527730;28;20494;-75
2023/07/12 05:50:56;;;;;;;3.65;1.20;;;;;;;23.70;70.68;97281.84;10527326;28;20052;-75
2023/07/12 05:56:17;;;;;;;2.90;1.02;;;;;;;23.75;70.63;97299.00;10526637;28;20071;-75
2023/07/12 06:01:37;;;;;;;4.03;1.00;;;;;;;23.71;68.69;97296.81;10526774;28;20067;-75
2023/07/12 06:06:58;;;;;;;5.38;1.00;;;;;;;23.76;67.93;97298.28;10541575;28;20076;-75
2023/07/12 06:12:18;;;;;;;4.05;0.90;;;;;;;23.94;66.87;97317.69;10541224;28;20040;-75
2023/07/12 06:17:39;;;;;;;4.13;0.98;;;;;;;23.97;65.39;97321.97;10498247;28;20127;-75
2023/07/12 06:23:00;;;;;;;2.90;1.20;;;;;;;23.76;64.35;97331.78;10511863;28;20083;-75
2023/07/12 06:28:21;;;;;;;2.67;1.00;;;;;;;23.72;63.25;97326.72;10541017;28;20170;-75
2023/07/12 06:33:42;;;;;;;3.60;1.13;;;;;;;24.03;63.10;97335.53;10525664;28;20060;-76
2023/07/12 06:39:03;;;;;;;1.90;1.25;;;;;;;24.22;62.29;97357.06;10497743;28;20043;-76
2023/07/12 06:44:24;;;;;;;3.50;0.90;;;;;;;24.08;60.44;97354.13;10524722;28;20044;-75
2023/07/12 06:49:44;;;;;;;3.00;0.98;;;;;;;23.91;59.97;97358.97;10510639;28;20447;-75
2023/07/12 06:55:05;;;;;;;4.38;0.90;;;;;;;23.87;60.18;97358.94;10524783;28;20046;-75
2023/07/12 07:00:26;;;;;;;2.08;0.90;;;;;;;24.60;59.14;97393.75;10510509;28;20076;-75
2023/07/12 07:05:47;;;;;;;2.75;0.75;;;;;;;26.23;57.02;97394.34;10510543;28;20098;-75
2023/07/12 07:11:07;;;;;;;3.78;0.70;;;;;;;27.62;55.08;97380.44;10496507;28;20067;-75
2023/07/12 07:16:30;;;;;;;4.18;1.00;;;;;;;28.45;49.68;97377.00;10524539;28;20443;-76
2023/07/12 07:21:51;;;;;;;3.22;0.90;;;;;;;28.56;49.42;97374.72;10510436;28;20078;-75
2023/07/12 07:27:12;;;;;;;3.38;0.68;;;;;;;28.35;47.49;97376.38;10510155;28;20072;-76
2023/07/12 07:32:33;;;;;;;2.10;0.90;;;;;;;28.87;46.13;97380.19;10510205;28;20405;-76
2023/07/12 07:37:54;;;;;;;2.50;0.73;;;;;;;29.61;44.95;97358.47;10523814;28;20119;-76
2023/07/12 07:43:15;;;;;;;5.68;0.52;;;;;;;30.31;42.81;97352.38;10523783;28;20047;-75
2023/07/12 07:48:35;;;;;;;1.20;0.55;;;;;;;30.21;42.78;97355.44;10523449;28;20501;-77
2023/07/12 07:53:56;;;;;;;2.60;0.67;;;;;;;29.67;42.72;97362.72;10523643;28;20078;-78
2023/07/12 07:59:17;;;;;;;2.72;0.60;;;;;;;29.10;43.44;97369.88;10501407;28;20680;-75
2023/07/12 08:04:38;;;;;;;1.77;0.70;;;;;;;28.44;44.33;97371.97;10546463;28;20082;-77
2023/07/12 08:10:00;;;;;;;1.77;0.43;;;;;;;28.99;44.54;97360.69;10517730;28;20367;-76
2023/07/12 08:15:22;;;;;;;2.17;0.60;;;;;;;29.83;42.81;97374.00;10531111;28;20478;-77
2023/07/12 08:20:43;;;;;;;2.75;0.63;;;;;;;30.02;42.07;97385.94;10531100;28;20063;-78
2023/07/12 08:26:04;;;;;;;2.97;0.60;;;;;;;30.27;41.01;97404.25;10516507;28;20070;-77
2023/07/12 08:31:24;;;;;;;2.10;0.60;;;;;;;30.35;41.11;97407.00;10530362;28;20068;-76
2023/07/12 08:36:45;;;;;;;1.80;0.88;;;;;;;31.18;39.74;97399.06;10530298;28;20067;-77
2023/07/12 08:42:11;;;;;;;1.03;0.53;;;;;;;31.60;38.56;97405.44;10530160;28;20044;-78
2023/07/12 08:47:36;;;;;;;1.95;0.60;;;;;;;31.59;38.24;97393.19;10529730;28;20052;-77
2023/07/12 08:52:57;;;;;;;2.78;0.70;;;;;;;32.77;37.43;97401.25;10530196;28;20051;-77
2023/07/12 08:58:41;;;;;;;0.98;0.50;;;;;;;33.58;35.56;97392.50;10501610;28;20040;-77
2023/07/12 09:04:20;;;;;;;1.17;0.50;;;;;;;32.90;34.05;97385.00;10544340;28;20048;-78
2023/07/12 09:09:42;;;;;;;1.20;0.70;;;;;;;33.26;34.39;97374.63;10529006;28;20042;-77
2023/07/12 09:15:06;;;;;;;2.35;0.80;;;;;;;33.64;33.16;97366.31;10528734;28;20119;-77
2023/07/12 09:20:29;;;;;;;3.15;0.75;;;;;;;33.53;33.16;97362.31;10514797;28;20040;-77
2023/07/12 09:25:54;;;;;;;2.13;1.00;;;;;;;33.65;32.57;97364.81;10528510;28;20529;-75
2023/07/12 09:31:28;;;;;;;1.80;0.70;;;;;;;33.38;33.17;97358.41;10514202;28;20036;-76
2023/07/12 09:36:57;;;;;;;2.45;1.10;;;;;;;33.75;32.27;97352.22;10514162;28;20044;-75
2023/07/12 09:42:19;;;;;;;3.63;1.08;;;;;;;35.06;31.49;97371.81;10514118;28;20046;-75
2023/07/12 09:47:51;;;;;;;2.95;0.80;;;;;;;35.95;29.59;97367.75;10527405;28;20044;-77
2023/07/12 09:53:19;;;;;;;3.03;1.00;;;;;;;35.99;28.83;97355.97;10542358;28;20048;-76
2023/07/12 09:58:44;;;;;;;2.03;0.90;;;;;;;35.96;28.08;97351.75;10500263;28;20044;-77
2023/07/12 10:04:28;;;;;;;1.33;0.70;;;;;;;36.43;27.38;97353.47;10513058;28;20056;-75
2023/07/12 10:09:50;;;;;;;2.70;1.00;;;;;;;35.25;28.96;97358.06;10501505;28;20554;-77
2023/07/12 10:15:13;;;;;;;2.58;0.93;;;;;;;34.41;29.93;97337.81;10526473;28;20036;-76
2023/07/12 10:20:35;;;;;;;3.00;0.77;;;;;;;34.92;30.14;97341.84;10512499;28;20119;-76
2023/07/12 10:26:02;;;;;;;2.60;1.20;;;;;;;34.99;30.17;97331.44;10526284;28;20458;-76
2023/07/12 10:31:36;;;;;;;4.13;1.25;;;;;;;34.13;30.89;97336.53;10512020;28;20051;-77
2023/07/12 10:37:03;;;;;;;3.95;1.35;;;;;;;34.27;31.79;97335.38;10511269;28;20054;-77
2023/07/12 10:42:41;;;;;;;4.38;1.30;;;;;;;35.08;30.92;97340.56;10512016;28;20067;-76
2023/07/12 10:48:03;;;;;;;2.33;1.10;;;;;;;35.82;29.79;97353.00;10525160;28;20113;-76
2023/07/12 10:53:25;;;;;;;5.35;1.48;;;;;;;35.31;29.74;97333.91;10511210;28;20047;-76
2023/07/12 10:58:54;;;;;;;3.78;1.10;;;;;;;35.13;30.61;97336.03;10497856;28;20473;-76
2023/07/12 11:04:25;;;;;;;4.78;1.45;;;;;;;36.36;29.03;97331.97;10524986;28;20461;-76
2023/07/12 11:09:47;;;;;;;4.45;1.55;;;;;;;36.25;29.09;97319.34;10539715;28;20047;-76
2023/07/12 11:15:21;;;;;;;5.72;1.63;;;;;;;36.65;28.06;97326.34;10524438;28;20043;-76
2023/07/12 11:21:03;;;;;;;4.05;1.83;;;;;;;36.57;28.13;97320.88;10539135;28;20498;-76
2023/07/12 11:26:29;;;;;;;3.33;1.50;;;;;;;35.89;28.97;97313.53;10524632;28;20043;-76
2023/07/12 11:32:25;;;;;;;2.95;1.45;;;;;;;36.53;28.41;97309.44;10523571;28;20048;-76
2023/07/12 11:37:48;;;;;;;2.92;1.58;;;;;;;36.81;28.16;97318.41;10538707;28;20130;-76
2023/07/12 11:43:32;;;;;;;5.75;1.98;;;;;;;36.88;27.83;97316.69;10496002;28;20046;-77
2023/07/12 11:49:33;;;;;;;3.55;1.77;;;;;;;36.47;27.42;97318.41;10511228;28;20448;-76
2023/07/12 11:54:55;;;;;;;3.42;1.58;;;;;;;36.50;28.03;97299.41;10512219;28;20044;-77
2023/07/12 12:00:21;;;;;;;2.65;1.40;;;;;;;36.90;27.75;97302.03;10509465;28;20096;-76
2023/07/12 12:05:43;;;;;;;3.33;1.92;;;;;;;36.57;27.17;97306.34;10509442;28;20605;-77
2023/07/12 12:11:04;;;;;;;5.18;1.70;;;;;;;35.93;28.62;97307.56;10523341;28;20054;-77
2023/07/12 12:16:30;;;;;;;4.53;1.58;;;;;;;35.55;28.75;97313.41;10522992;28;20044;-76
2023/07/12 12:21:57;;;;;;;7.78;1.63;;;;;;;36.08;28.66;97310.59;10523168;28;20044;-77
2023/07/12 12:27:31;;;;;;;4.55;1.67;;;;;;;36.28;28.13;97320.66;10482886;28;20048;-76
2023/07/12 12:32:58;;;;;;;3.05;1.70;;;;;;;35.22;28.69;97316.81;10509779;28;20036;-77
2023/07/12 12:38:26;;;;;;;4.93;1.73;;;;;;;34.02;29.44;97308.69;10522605;28;20066;-76
2023/07/12 12:44:12;;;;;;;7.35;2.08;;;;;;;33.36;30.77;97312.91;10510353;28;20461;-76
2023/07/12 12:49:36;;;;;;;5.93;1.80;;;;;;;33.63;31.47;97304.13;10530876;28;20048;-77
2023/07/12 12:55:06;;;;;;;4.90;1.70;;;;;;;34.78;30.05;97310.44;10503350;28;20043;-77
2023/07/12 13:00:36;;;;;;;5.90;2.63;;;;;;;34.78;29.65;97298.84;10518132;28;20475;-77
2023/07/12 13:06:00;;;;;;;3.88;1.95;;;;;;;34.00;30.08;97308.78;10544187;28;20467;-76
2023/07/12 13:11:21;;;;;;;5.68;1.80;;;;;;;33.52;30.54;97312.41;10515029;28;20063;-77
2023/07/12 13:16:45;;;;;;;8.10;2.03;;;;;;;32.81;30.94;97316.63;10529275;28;20071;-77
2023/07/12 13:22:12;;;;;;;5.38;2.20;;;;;;;32.62;31.87;97313.50;10514768;28;20044;-76
2023/07/12 13:27:40;;;;;;;3.60;1.80;;;;;;;33.34;31.73;97300.66;10514633;28;20040;-77
2023/07/12 13:33:01;;;;;;;7.30;2.08;;;;;;;34.40;30.49;97298.75;10514057;28;20044;-76
2023/07/12 13:38:22;;;;;;;4.43;2.17;;;;;;;34.48;29.81;97302.84;10513549;28;20375;-76
2023/07/12 13:43:46;;;;;;;4.50;1.80;;;;;;;34.07;29.55;97295.50;10542843;28;20049;-77
2023/07/12 13:49:27;;;;;;;5.85;2.20;;;;;;;33.44;30.51;97300.38;10530563;28;20383;-77
2023/07/12 13:54:48;;;;;;;4.32;1.85;;;;;;;33.43;31.56;97308.34;10513046;28;20056;-77
2023/07/12 14:00:11;;;;;;;4.35;2.00;;;;;;;34.15;30.72;97304.63;10513148;28;20046;-76
2023/07/12 14:05:42;;;;;;;5.60;2.15;;;;;;;34.12;31.00;97305.47;10526311;28;20410;-76
2023/07/12 14:11:12;;;;;;;4.25;2.15;;;;;;;34.15;31.27;97301.72;10512825;28;20071;-77
2023/07/12 14:16:34;;;;;;;4.25;1.75;;;;;;;33.99;30.72;97292.88;10526234;28;20059;-77
2023/07/12 14:21:55;;;;;;;5.38;1.88;;;;;;;33.90;30.57;97286.66;10540851;28;20055;-76
2023/07/12 14:27:28;;;;;;;4.07;1.85;;;;;;;33.98;30.03;97282.78;10525797;28;20082;-76
2023/07/12 14:32:49;;;;;;;4.05;2.20;;;;;;;33.68;30.30;97276.47;10511972;28;20051;-76
2023/07/12 14:38:13;;;;;;;5.07;2.25;;;;;;;33.51;30.10;97273.41;10498244;28;20040;-76
2023/07/12 14:43:34;;;;;;;4.03;2.22;;;;;;;33.79;30.08;97262.41;10511986;28;20040;-77
2023/07/12 14:48:56;;;;;;;4.88;2.33;;;;;;;34.06;30.14;97257.16;10511363;28;20055;-76
2023/07/12 14:54:17;;;;;;;3.60;2.00;;;;;;;34.06;29.77;97250.66;10510891;28;20482;-75
2023/07/12 14:59:42;;;;;;;4.93;1.83;;;;;;;33.69;27.49;97243.19;10510810;28;20044;-76
2023/07/12 15:05:03;;;;;;;5.78;2.10;;;;;;;33.25;26.76;97248.16;10510583;28;20056;-76
2023/07/12 15:10:25;;;;;;;5.60;2.13;;;;;;;32.94;26.95;97251.25;10510424;28;20055;-76
2023/07/12 15:15:47;;;;;;;3.88;2.08;;;;;;;32.49;27.16;97246.72;10510368;28;20119;-77
2023/07/12 15:21:17;;;;;;;;;;;;;;;32.80;27.19;97240.06;10496981;28;20449;-75
2023/07/12 15:26:38;;;;;;;2.47;1.60;;;;;;;33.56;26.41;97234.16;10538381;28;19931;-77
2023/07/12 15:32:00;;;;;;;6.32;2.00;;;;;;;33.55;25.66;97237.84;10510171;28;20469;-76
2023/07/12 15:37:21;;;;;;;3.30;1.90;;;;;;;33.21;25.87;97251.19;10524041;28;20044;-76
2023/07/12 15:42:43;;;;;;;3.35;1.88;;;;;;;32.61;26.30;97242.78;10496177;28;20105;-76
2023/07/12 15:48:13;;;;;;;3.58;1.73;;;;;;;32.12;26.77;97239.00;10523931;28;20115;-75
2023/07/12 15:53:35;;;;;;;5.10;1.98;;;;;;;31.96;26.88;97245.22;10510091;28;20040;-76
2023/07/12 15:58:57;;;;;;;3.60;1.60;;;;;;;32.27;26.84;97233.56;10510028;28;20532;-76
2023/07/12 16:04:19;;;;;;;4.28;1.83;;;;;;;32.20;26.63;97240.97;10509942;28;20375;-76
2023/07/12 16:09:41;;;;;;;4.10;1.98;;;;;;;31.90;26.38;97251.84;10523633;28;20063;-76
2023/07/12 16:15:03;;;;;;;2.22;1.60;;;;;;;31.92;26.95;97250.38;10538250;28;20048;-76
2023/07/12 16:20:24;;;;;;;3.10;1.70;;;;;;;31.84;27.03;97243.31;10528778;28;20427;-76
2023/07/12 16:25:45;;;;;;;2.88;2.15;;;;;;;31.73;27.03;97244.31;10516981;28;20052;-76
2023/07/12 16:31:40;;;;;;;5.28;2.30;;;;;;;31.75;27.50;97253.66;10516842;28;20495;-76
2023/07/12 16:37:02;;;;;;;5.50;2.20;;;;;;;31.80;27.40;97257.16;10504838;28;20064;-77
2023/07/12 16:42:22;;;;;;;7.07;2.38;;;;;;;31.74;27.61;97255.09;10530518;28;20131;-77
2023/07/12 16:47:43;;;;;;;5.20;2.58;;;;;;;31.65;27.87;97264.69;10545287;28;20101;-76
2023/07/12 16:53:13;;;;;;;3.15;2.10;;;;;;;31.62;27.80;97267.63;10516209;28;20043;-77
2023/07/12 16:58:34;;;;;;;3.17;2.08;;;;;;;31.59;28.20;97271.34;10516308;28;20044;-77
2023/07/12 17:03:55;;;;;;;3.27;1.87;;;;;;;31.26;27.99;97274.94;10529466;28;20121;-76
2023/07/12 17:09:23;;;;;;;6.15;2.40;;;;;;;30.94;28.41;97276.31;10515505;28;20531;-75
2023/07/12 17:14:44;;;;;;;4.25;1.75;;;;;;;30.69;28.82;97278.28;10501359;28;20044;-77
2023/07/12 17:20:05;;;;;;;4.90;2.03;;;;;;;30.59;28.94;97284.22;10501028;28;20036;-76
2023/07/12 17:25:26;;;;;;;6.27;2.10;;;;;;;30.42;28.99;97293.16;10528655;28;20040;-76
2023/07/12 17:30:49;;;;;;;4.97;2.20;;;;;;;30.39;29.96;97288.88;10513922;28;20274;-76
2023/07/12 17:36:13;;;;;;;4.30;1.88;;;;;;;30.34;30.17;97286.84;10527821;28;20127;-76
2023/07/12 17:41:34;;;;;;;4.80;1.98;;;;;;;30.14;30.97;97288.63;10500321;28;20115;-76
2023/07/12 17:46:57;;;;;;;3.28;1.90;;;;;;;29.86;31.45;97295.53;10528053;28;20157;-77
2023/07/12 17:52:18;;;;;;;4.65;2.17;;;;;;;29.62;33.02;97281.53;10513648;28;20166;-76
2023/07/12 17:57:39;;;;;;;;;;;;;;;29.36;34.39;97279.75;10527789;28;20482;-76
2023/07/12 18:03:00;;;;;;;5.82;2.28;;;;;;;29.06;34.36;97286.63;10540819;28;20332;-77
2023/07/12 18:08:23;;;;;;;5.70;2.17;;;;;;;28.84;34.82;97296.19;10527304;28;20482;-77
2023/07/12 18:13:44;;;;;;;4.47;2.22;;;;;;;28.58;35.57;97296.50;10498905;28;20097;-77
2023/07/12 18:19:05;;;;;;;7.25;2.45;;;;;;;28.39;36.12;97305.31;10526383;28;20036;-77
2023/07/12 18:24:26;;;;;;;4.45;2.15;;;;;;;28.16;36.68;97304.75;10526561;28;20486;-77
2023/07/12 18:29:47;;;;;;;5.93;2.13;;;;;;;27.79;37.66;97303.63;10526063;28;20044;-77
2023/07/12 18:35:22;;;;;;;3.97;1.63;;;;;;;27.61;38.25;97302.31;10512091;28;20036;-78
2023/07/12 18:40:43;;;;;;;2.55;1.75;;;;;;;27.44;38.57;97301.00;10512034;28;20562;-77
2023/07/12 18:46:04;;;;;;;5.88;1.80;;;;;;;27.28;38.95;97312.53;10511684;28;20055;-76
2023/07/12 18:51:28;;;;;;;3.85;1.95;;;;;;;27.25;39.15;97316.88;10511392;28;20516;-77
2023/07/12 18:56:49;;;;;;;5.97;2.05;;;;;;;27.12;39.41;97301.16;10511332;28;20068;-77
2023/07/12 19:02:12;;;;;;;6.53;2.03;;;;;;;26.99;39.97;97315.50;10497219;28;20040;-75
2023/07/12 19:07:33;;;;;;;5.05;2.10;;;;;;;26.83;40.14;97327.06;10524326;28;20048;-77
2023/07/12 19:12:54;;;;;;;4.47;2.17;;;;;;;26.74;40.77;97329.22;10524841;28;20472;-75
2023/07/12 19:18:15;;;;;;;5.28;2.03;;;;;;;26.61;40.90;97332.81;10524305;28;20343;-77
2023/07/12 19:23:36;;;;;;;3.90;2.28;;;;;;;26.51;41.27;97340.00;10510172;28;20064;-75
2023/07/12 19:28:56;;;;;;;2.88;1.95;;;;;;;26.37;41.99;97351.47;10496373;28;20078;-75
2023/07/12 19:34:19;;;;;;;5.63;2.20;;;;;;;26.29;41.91;97362.91;10524077;28;20048;-74
2023/07/12 19:39:40;;;;;;;2.97;2.10;;;;;;;26.21;42.48;97371.47;10496147;28;20072;-74
2023/07/12 19:45:00;;;;;;;3.17;2.00;;;;;;;26.13;42.87;97371.47;10523613;28;20470;-77
2023/07/12 19:50:22;;;;;;;5.50;2.13;;;;;;;26.01;42.87;97366.47;10523866;28;20048;-76
2023/07/12 19:55:42;;;;;;;11.23;3.08;;;;;;;25.95;43.61;97360.72;10501992;28;20402;-74
2023/07/12 20:01:04;;;;;;;5.20;2.05;;;;;;;25.88;43.79;97368.59;10518003;28;20438;-73
2023/07/12 20:06:25;;;;;;;4.53;2.30;;;;;;;25.82;43.87;97365.72;10489990;28;20117;-73
2023/07/12 20:11:46;;;;;;;3.38;2.00;;;;;;;25.71;44.25;97367.16;10517833;28;20398;-74
2023/07/12 20:17:07;;;;;;;5.90;2.47;;;;;;;25.63;44.32;97367.81;10517347;28;20040;-73
2023/07/12 20:22:28;;;;;;;5.47;2.22;;;;;;;25.56;45.10;97369.22;10531420;28;20048;-75
2023/07/12 20:27:49;;;;;;;8.02;2.42;;;;;;;25.46;45.22;97374.91;10546051;28;20504;-75
2023/07/12 20:33:09;;;;;;;6.22;2.58;;;;;;;25.39;45.42;97379.19;10516654;28;20543;-74
2023/07/12 20:38:30;;;;;;;5.70;2.53;;;;;;;25.30;45.85;97384.16;10530547;28;20040;-75
2023/07/12 20:43:52;;;;;;;4.72;2.40;;;;;;;25.23;45.76;97390.56;10516270;28;20071;-75
2023/07/12 20:49:13;;;;;;;4.50;2.58;;;;;;;25.15;46.30;97391.22;10530235;28;20068;-76
2023/07/12 20:54:34;;;;;;;4.03;2.08;;;;;;;25.06;46.45;97392.59;10516273;28;20571;-76
2023/07/12 20:59:55;;;;;;;9.77;2.20;;;;;;;25.02;46.42;97392.59;10501961;28;20044;-76
2023/07/12 21:05:16;;;;;;;5.57;2.25;;;;;;;24.94;46.58;97403.94;10543463;28;20059;-75
2023/07/12 21:10:37;;;;;;;4.00;2.13;;;;;;;24.83;46.55;97412.44;10515353;28;20067;-75
2023/07/12 21:16:06;;;;;;;3.55;1.95;;;;;;;24.71;47.29;97420.94;10515083;28;20120;-75
2023/07/12 21:21:27;;;;;;;4.05;1.95;;;;;;;24.62;47.43;97424.44;10515265;28;20066;-75
2023/07/12 21:26:48;;;;;;;6.80;1.45;;;;;;;24.51;47.55;97415.81;10514620;28;20093;-74
2023/07/12 21:32:09;;;;;;;3.35;2.00;;;;;;;24.38;47.66;97414.28;10528593;28;20040;-75
2023/07/12 21:37:30;;;;;;;4.88;1.98;;;;;;;24.26;48.04;97422.72;10513935;28;20086;-76
2023/07/12 21:42:50;;;;;;;3.15;1.88;;;;;;;24.09;48.38;97423.97;10528172;28;20051;-76
2023/07/12 21:48:11;;;;;;;4.47;1.88;;;;;;;23.82;49.16;97435.13;10513672;28;20064;-76
2023/07/12 21:53:32;;;;;;;3.38;2.10;;;;;;;23.58;49.66;97432.69;10513493;28;20109;-76
2023/07/12 21:58:53;;;;;;;4.40;2.70;;;;;;;23.41;49.99;97422.53;10513203;28;20060;-75
2023/07/12 22:04:13;;;;;;;3.10;2.20;;;;;;;23.28;50.49;97426.66;10541867;28;20128;-76
2023/07/12 22:09:35;;;;;;;3.22;2.10;;;;;;;23.14;50.67;97416.50;10542313;28;20067;-76
2023/07/12 22:14:55;;;;;;;6.13;2.58;;;;;;;23.06;51.31;97416.38;10512383;28;20246;-76
2023/07/12 22:20:18;;;;;;;4.30;2.30;;;;;;;23.02;51.85;97427.00;10512719;28;20063;-75
2023/07/12 22:25:38;;;;;;;4.80;2.25;;;;;;;23.05;52.02;97429.19;10512723;28;20078;-75
2023/07/12 22:30:59;;;;;;;5.32;2.50;;;;;;;23.01;52.33;97420.59;10526270;28;20479;-76
2023/07/12 22:36:20;;;;;;;4.05;2.30;;;;;;;22.96;52.92;97424.78;10497821;28;20245;-75
2023/07/12 22:41:41;;;;;;;3.28;2.22;;;;;;;22.98;53.20;97416.31;10511749;28;20040;-75
2023/07/12 22:47:02;;;;;;;3.25;2.20;;;;;;;22.97;53.28;97422.66;10525677;28;20513;-76
2023/07/12 22:52:22;;;;;;;4.57;2.45;;;;;;;22.93;53.39;97419.78;10525174;28;20455;-76
2023/07/12 22:57:43;;;;;;;4.55;2.30;;;;;;;22.96;53.45;97412.69;10510886;28;20512;-76
2023/07/12 23:03:04;;;;;;;6.72;2.55;;;;;;;23.01;53.91;97414.91;10524261;28;20173;-76
2023/07/12 23:08:25;;;;;;;4.07;2.13;;;;;;;23.06;53.97;97422.09;10496762;28;20075;-76
2023/07/12 23:13:47;;;;;;;5.35;2.40;;;;;;;23.08;54.03;97410.75;10496732;28;20154;-76
2023/07/12 23:19:08;;;;;;;8.43;2.37;;;;;;;23.10;54.10;97413.59;10510970;28;20117;-74
2023/07/12 23:24:30;;;;;;;3.60;2.10;;;;;;;23.11;54.17;97408.63;10524691;28;20497;-76
2023/07/12 23:29:51;;;;;;;4.82;2.05;;;;;;;23.16;54.36;97407.25;10538458;28;20071;-76
2023/07/12 23:35:11;;;;;;;3.13;2.08;;;;;;;23.12;54.15;97413.63;10524244;28;20107;-76
2023/07/12 23:40:32;;;;;;;7.20;2.25;;;;;;;23.06;54.01;97424.22;10495890;28;20071;-77
2023/07/12 23:45:53;;;;;;;6.35;2.40;;;;;;;23.03;54.08;97428.44;10538913;28;20063;-76
2023/07/12 23:51:13;;;;;;;4.85;2.25;;;;;;;22.99;53.85;97429.13;10523659;28;20443;-76
2023/07/12 23:56:34;;;;;;;6.78;2.30;;;;;;;23.04;53.69;97435.56;10509862;28;20553;-76
